Time;durP1;ratioP1;P1;durP2;ratioP2;P2;SDS_P1;SDS_P2;PMS_P1;PMS_P2;Temp;Humidity;BMP_temperature;BMP_pressure;BME280_temperature;BME280_humidity;BME280_pressure;Samples;Min_cycle;Max_cycle;Signal;HPM_P1;HPM_P2
2023/02/10 00:04:50;;;;;;;52.10;33.40;;;4.50;99.90;;;;;;2616303;39;20470;-74
2023/02/10 00:10:38;;;;;;;45.30;34.97;;;4.50;99.90;;;;;;2615968;54;20119;-74
2023/02/10 00:16:26;;;;;;;43.63;32.30;;;4.40;99.90;;;;;;2617415;54;20126;-74
2023/02/10 00:22:13;;;;;;;45.67;35.27;;;4.30;99.90;;;;;;2617426;54;20119;-74
2023/02/10 00:28:02;;;;;;;50.23;34.33;;;4.30;99.90;;;;;;2617751;54;20231;-74
2023/02/10 00:37:24;;;;;;;49.20;34.27;;;4.20;99.90;;;;;;2617354;46;20422;-75
2023/02/10 00:43:12;;;;;;;46.83;34.43;;;4.20;99.90;;;;;;2616927;54;20398;-74
2023/02/10 00:49:00;;;;;;;52.90;34.17;;;4.20;99.90;;;;;;2617308;54;20143;-73
2023/02/10 00:54:47;;;;;;;50.10;36.47;;;4.20;99.90;;;;;;2617572;39;20553;-75
2023/02/10 01:00:35;;;;;;;53.77;35.77;;;4.20;99.90;;;;;;2617165;54;20644;-74
2023/02/10 01:06:22;;;;;;;52.40;34.67;;;4.10;99.90;;;;;;2617111;54;20126;-75
2023/02/10 01:12:10;;;;;;;43.07;33.90;;;4.00;99.90;;;;;;2617170;54;20126;-74
2023/02/10 01:17:58;;;;;;;52.13;33.80;;;4.00;99.90;;;;;;2618055;39;20564;-73
2023/02/10 01:23:47;;;;;;;57.10;36.97;;;3.90;99.90;;;;;;2616990;54;20472;-74
2023/02/10 01:29:35;;;;;;;48.83;35.33;;;3.90;99.90;;;;;;2617157;54;20431;-73
2023/02/10 01:32:51;;;;;;;47.57;35.53;;;3.90;99.90;;;;;;2616373;54;20407;-74
2023/02/10 01:35:17;;;;;;;51.43;35.87;;;4.00;99.90;;;;;;2616822;54;20155;-75
2023/02/10 01:41:06;;;;;;;50.80;36.63;;;4.10;99.90;;;;;;2616955;54;20637;-73
2023/02/10 01:46:55;;;;;;;51.77;34.03;;;4.20;99.90;;;;;;2616805;54;20427;-74
2023/02/10 01:52:44;;;;;;;49.87;33.37;;;4.20;99.90;;;;;;2617307;54;20395;-73
2023/02/10 01:58:34;;;;;;;53.37;36.77;;;4.20;99.90;;;;;;2617281;54;20973;-75
2023/02/10 02:04:21;;;;;;;52.90;36.90;;;4.20;99.90;;;;;;2616456;54;20390;-73
2023/02/10 02:10:09;;;;;;;54.77;36.17;;;4.20;99.90;;;;;;2616700;39;20756;-73
2023/02/10 02:35:48;;;;;;;49.20;36.10;;;4.10;99.90;;;;;;2615621;54;20434;-72
2023/02/10 02:41:35;;;;;;;56.30;35.77;;;3.90;99.90;;;;;;2616183;54;20378;-72
2023/02/10 03:00:43;;;;;;;64.97;39.07;;;3.20;99.90;;;;;;2614763;54;20414;-73
2023/02/10 03:06:31;;;;;;;54.07;35.80;;;3.10;99.90;;;;;;2616228;54;21005;-73
2023/02/10 03:12:19;;;;;;;66.73;40.80;;;2.90;99.90;;;;;;2616097;39;20626;-73
2023/02/10 03:18:07;;;;;;;62.47;42.73;;;2.90;99.90;;;;;;2616151;54;20130;-74
2023/02/10 03:23:54;;;;;;;65.03;42.40;;;2.90;99.90;;;;;;2614959;54;20151;-71
2023/02/10 03:29:42;;;;;;;56.00;36.67;;;2.90;99.90;;;;;;2614829;54;20154;-71
2023/02/10 03:32:53;;;;;;;69.37;40.53;;;2.90;99.90;;;;;;2614664;54;20404;-72
2023/02/10 03:35:19;;;;;;;67.77;39.80;;;2.80;99.90;;;;;;2614528;54;20430;-71
2023/02/10 03:41:07;;;;;;;59.57;39.70;;;2.60;99.90;;;;;;2615831;54;20383;-73
2023/02/10 03:46:55;;;;;;;59.27;39.20;;;2.50;99.90;;;;;;2616473;39;20568;-72
2023/02/10 03:52:42;;;;;;;65.67;41.03;;;2.30;99.90;;;;;;2617218;54;20146;-74
2023/02/10 03:58:30;;;;;;;71.90;41.87;;;2.20;99.90;;;;;;2617360;54;20227;-74
2023/02/10 04:04:18;;;;;;;60.37;37.70;;;2.20;99.90;;;;;;2616555;54;20266;-73
2023/02/10 04:10:06;;;;;;;72.40;43.03;;;2.00;99.90;;;;;;2617378;54;20699;-73
2023/02/10 04:16:05;;;;;;;64.83;40.07;;;1.80;99.90;;;;;;2616629;54;20370;-73
2023/02/10 04:21:52;;;;;;;74.00;41.50;;;1.50;99.90;;;;;;2616681;54;20390;-73
2023/02/10 04:27:40;;;;;;;80.73;42.07;;;1.40;99.90;;;;;;2616627;54;20126;-73
2023/02/10 04:37:24;;;;;;;61.30;39.40;;;1.20;99.90;;;;;;2616719;54;20389;-73
2023/02/10 04:43:13;;;;;;;74.47;40.83;;;1.30;99.90;;;;;;2616827;54;20402;-73
2023/02/10 04:49:00;;;;;;;64.80;36.20;;;1.40;99.90;;;;;;2616898;54;20395;-74
2023/02/10 04:54:48;;;;;;;72.63;43.67;;;1.40;99.90;;;;;;2616710;54;20146;-72
2023/02/10 05:00:36;;;;;;;59.13;30.67;;;1.40;99.90;;;;;;2616833;54;20170;-72
2023/02/10 05:06:24;;;;;;;74.93;41.80;;;1.80;99.90;;;;;;2616469;54;20125;-73
2023/02/10 05:12:12;;;;;;;57.83;35.67;;;1.90;99.90;;;;;;2616921;54;20958;-73
2023/02/10 05:17:59;;;;;;;83.87;41.53;;;1.80;99.90;;;;;;2616647;54;20126;-73
2023/02/10 05:23:47;;;;;;;74.33;42.53;;;1.50;99.90;;;;;;2617175;31;20603;-73
2023/02/10 05:29:35;;;;;;;78.47;42.27;;;1.50;99.90;;;;;;2616645;54;20652;-73
2023/02/10 05:32:52;;;;;;;82.73;46.67;;;1.50;99.90;;;;;;2616576;54;20399;-73
2023/02/10 05:35:18;;;;;;;63.40;36.50;;;1.70;99.90;;;;;;2616262;54;20139;-72
2023/02/10 05:41:05;;;;;;;75.53;43.50;;;1.80;99.90;;;;;;2616889;39;20517;-73
2023/02/10 05:46:53;;;;;;;68.00;41.83;;;1.90;99.90;;;;;;2616278;54;20235;-74
2023/02/10 05:52:41;;;;;;;75.50;44.07;;;2.10;99.90;;;;;;2616448;31;20562;-73
2023/02/10 05:58:32;;;;;;;79.37;43.90;;;2.10;99.90;;;;;;2616310;54;20126;-73
2023/02/10 06:04:20;;;;;;;74.30;43.63;;;2.20;99.90;;;;;;2616077;54;20378;-73
2023/02/10 06:10:07;;;;;;;74.27;40.87;;;2.30;99.90;;;;;;2616216;54;20150;-73
2023/02/10 06:15:55;;;;;;;66.70;39.33;;;2.40;99.90;;;;;;2616380;54;20146;-74
2023/02/10 06:21:43;;;;;;;70.20;40.70;;;2.50;99.90;;;;;;2616242;54;20243;-73
2023/02/10 06:27:30;;;;;;;82.43;43.50;;;2.60;99.90;;;;;;2616248;54;20354;-72
2023/02/10 06:37:24;;;;;;;71.87;43.27;;;2.60;99.90;;;;;;2615938;54;20946;-72
2023/02/10 06:43:11;;;;;;;79.23;44.10;;;2.70;99.90;;;;;;2615984;54;20449;-73
2023/02/10 06:48:59;;;;;;;64.17;40.00;;;2.80;99.90;;;;;;2615982;54;21051;-73
2023/02/10 06:54:47;;;;;;;66.67;43.50;;;2.80;99.90;;;;;;2616134;54;20119;-74
2023/02/10 07:00:34;;;;;;;72.20;42.87;;;2.70;99.90;;;;;;2616235;54;20117;-73
2023/02/10 07:06:23;;;;;;;66.83;41.00;;;2.80;99.90;;;;;;2615879;39;20516;-73
2023/02/10 07:12:10;;;;;;;65.77;39.67;;;2.70;99.90;;;;;;2616487;54;20944;-73
2023/02/10 07:17:58;;;;;;;67.73;37.90;;;2.70;99.90;;;;;;2616123;54;20150;-73
2023/02/10 07:23:46;;;;;;;62.47;33.87;;;2.60;99.90;;;;;;2616864;54;20117;-73
2023/02/10 07:29:34;;;;;;;62.90;37.13;;;2.70;99.90;;;;;;2616733;54;20265;-73
2023/02/10 07:32:52;;;;;;;65.40;39.47;;;2.70;99.90;;;;;;2616964;54;20949;-73
2023/02/10 07:35:18;;;;;;;71.77;43.10;;;2.70;99.90;;;;;;2616653;54;20150;-73
2023/02/10 07:41:06;;;;;;;68.40;40.40;;;2.70;99.90;;;;;;2616972;54;20129;-73
2023/02/10 07:46:54;;;;;;;79.50;41.47;;;2.80;99.90;;;;;;2616563;54;20366;-72
2023/02/10 07:52:43;;;;;;;71.17;42.50;;;2.90;99.90;;;;;;2616901;54;20146;-73
2023/02/10 07:58:31;;;;;;;63.20;39.90;;;3.30;99.90;;;;;;2616534;54;20386;-73
2023/02/10 08:04:18;;;;;;;85.77;42.70;;;3.90;99.90;;;;;;2616654;54;20135;-73
2023/02/10 08:10:06;;;;;;;60.60;37.27;;;4.60;99.90;;;;;;2616554;54;20227;-73
2023/02/10 08:15:54;;;;;;;69.77;42.53;;;4.90;99.90;;;;;;2616163;54;20126;-73
2023/02/10 08:21:41;;;;;;;61.97;42.70;;;5.60;99.90;;;;;;2616297;54;20143;-71
2023/02/10 08:27:29;;;;;;;63.97;36.97;;;6.40;99.90;;;;;;2616158;54;20244;-73
2023/02/10 08:37:23;;;;;;;63.93;43.90;;;6.50;99.90;;;;;;2615968;54;20366;-74
2023/02/10 08:43:10;;;;;;;61.03;38.33;;;5.70;99.90;;;;;;2616408;54;20367;-73
2023/02/10 08:49:00;;;;;;;58.83;33.13;;;4.90;99.90;;;;;;2616428;54;20118;-73
2023/02/10 08:54:48;;;;;;;37.63;23.33;;;4.80;99.90;;;;;;2615722;54;20427;-74
2023/02/10 09:00:35;;;;;;;52.80;37.03;;;5.10;99.90;;;;;;2616173;54;20641;-72
2023/02/10 09:06:28;;;;;;;50.97;34.70;;;5.50;99.90;;;;;;2616171;54;20146;-72
2023/02/10 09:12:15;;;;;;;47.17;35.33;;;6.20;99.90;;;;;;2616145;54;20366;-73
2023/02/10 09:18:03;;;;;;;59.60;39.47;;;6.80;99.90;;;;;;2616301;54;20155;-73
2023/02/10 09:23:51;;;;;;;53.70;37.50;;;7.00;99.90;;;;;;2616641;54;20127;-73
2023/02/10 09:29:39;;;;;;;47.83;32.47;;;7.60;99.90;;;;;;2616698;39;20749;-73
2023/02/10 09:35:36;;;;;;;59.00;39.77;;;7.80;95.30;;;;;;2614675;54;20138;-72
2023/02/10 09:41:35;;;;;;;59.67;39.43;;;8.60;71.10;;;;;;2614880;54;20516;-72
2023/02/10 09:47:47;;;;;;;54.07;37.37;;;8.40;68.30;;;;;;2614632;54;20464;-73
2023/02/10 09:57:00;;;;;;;62.80;36.57;;;8.20;76.10;;;;;;2614891;54;20455;-73
2023/02/10 10:02:53;;;;;;;50.93;31.60;;;8.90;70.40;;;;;;2614508;54;20391;-73
2023/02/10 10:09:10;;;;;;;52.17;38.93;;;8.80;58.40;;;;;;2614466;54;20420;-73
2023/02/10 10:14:58;;;;;;;53.73;37.40;;;9.90;54.80;;;;;;2615594;54;20447;-73
2023/02/10 10:37:25;;;;;;;50.00;37.57;;;10.90;41.90;;;;;;2615736;54;20479;-73
2023/02/10 10:49:27;;;;;;;47.83;33.37;;;12.00;25.30;;;;;;2615982;54;20411;-72
2023/02/10 10:55:18;;;;;;;52.10;37.03;;;11.80;21.70;;;;;;2615559;54;20142;-73
2023/02/10 11:01:06;;;;;;;42.63;33.97;;;10.60;24.70;;;;;;2617850;54;20519;-73
2023/02/10 11:06:56;;;;;;;48.33;36.20;;;11.50;24.50;;;;;;2617490;54;20162;-73
2023/02/10 11:12:45;;;;;;;58.67;36.77;;;12.40;15.70;;;;;;2617437;54;20534;-72
2023/02/10 11:18:32;;;;;;;44.80;31.90;;;11.70;9.20;;;;;;2617317;54;20422;-74
2023/02/10 11:24:30;;;;;;;45.37;35.27;;;11.40;16.60;;;;;;2617477;54;20219;-73
2023/02/10 11:30:29;;;;;;;41.30;31.10;;;8.90;21.60;;;;;;2617566;54;20920;-72
2023/02/10 11:39:43;;;;;;;43.40;33.80;;;10.30;24.90;;;;;;2617621;54;20434;-73
2023/02/10 11:45:31;;;;;;;37.30;29.67;;;10.20;21.50;;;;;;2617390;54;20383;-72
2023/02/10 11:51:19;;;;;;;44.90;35.47;;;9.40;20.30;;;;;;2617134;54;21001;-73
2023/02/10 12:03:47;;;;;;;41.83;32.77;;;10.50;15.50;;;;;;2617275;54;20395;-72
2023/02/10 12:10:13;;;;;;;38.83;27.80;;;10.20;24.60;;;;;;2616718;54;20391;-73
2023/02/10 12:22:47;;;;;;;36.97;30.70;;;11.50;11.50;;;;;;2615908;54;20387;-74
2023/02/10 12:28:41;;;;;;;40.47;31.13;;;9.80;25.20;;;;;;2616277;54;20179;-73
2023/02/10 12:34:51;;;;;;;47.83;31.33;;;11.70;18.50;;;;;;2616028;54;20410;-74
2023/02/10 12:47:29;;;;;;;34.90;28.43;;;12.10;1.00;;;;;;2615969;54;20424;-73
2023/02/10 12:53:25;;;;;;;33.23;28.67;;;9.50;10.00;;;;;;2616029;54;20383;-73
2023/02/10 12:59:36;;;;;;;32.47;28.50;;;10.60;6.50;;;;;;2616408;39;20879;-72
2023/02/10 13:09:30;;;;;;;28.70;22.90;;;12.70;1.00;;;;;;2614904;54;20432;-74
2023/02/10 13:22:09;;;;;;;28.73;21.60;;;13.10;1.00;;;;;;2614546;54;20396;-72
2023/02/10 13:34:57;;;;;;;25.40;22.70;;;12.70;1.00;;;;;;2613559;47;20791;-73
2023/02/10 13:43:57;;;;;;;23.83;21.33;;;13.20;1.00;;;;;;2614430;54;20391;-74
2023/02/10 13:56:35;;;;;;;23.97;21.60;;;12.40;1.00;;;;;;2613795;54;20469;-73
2023/02/10 14:02:25;;;;;;;23.80;21.20;;;13.70;1.00;;;;;;2614609;39;20698;-73
2023/02/10 14:08:14;;;;;;;33.40;25.17;;;13.50;1.00;;;;;;2614314;54;20379;-73
2023/02/10 14:20:28;;;;;;;33.73;25.23;;;9.90;5.70;;;;;;2614481;54;20371;-73
2023/02/10 14:26:19;;;;;;;35.00;26.43;;;9.80;9.40;;;;;;2614123;54;20507;-73
2023/02/10 14:32:12;;;;;;;32.93;26.87;;;10.30;8.30;;;;;;2615382;54;20415;-73
2023/02/10 14:37:54;;;;;;;35.97;28.67;;;9.90;9.50;;;;;;2615671;54;20415;-73
2023/02/10 14:43:42;;;;;;;25.37;22.67;;;9.00;13.90;;;;;;2615715;54;20387;-72
2023/02/10 14:49:35;;;;;;;34.57;28.47;;;8.90;17.30;;;;;;2615001;54;20386;-74
2023/02/10 14:55:36;;;;;;;34.83;27.13;;;9.40;12.40;;;;;;2615654;54;20427;-73
2023/02/10 15:01:27;;;;;;;31.17;25.60;;;9.70;10.30;;;;;;2615591;54;20398;-73
2023/02/10 15:13:47;;;;;;;37.10;26.90;;;8.50;21.60;;;;;;2615820;54;20382;-73
2023/02/10 15:19:35;;;;;;;30.93;25.47;;;8.40;23.10;;;;;;2615691;54;20410;-73
2023/02/10 15:25:29;;;;;;;40.60;27.87;;;8.40;25.00;;;;;;2615554;54;20410;-73
2023/02/10 15:28:32;;;;;;;34.97;28.87;;;8.30;25.80;;;;;;2615732;54;20436;-73
2023/02/10 15:37:39;;;;;;;37.53;30.10;;;9.00;22.20;;;;;;2614064;54;20419;-73
2023/02/10 15:50:23;;;;;;;32.00;26.67;;;8.50;20.70;;;;;;2615368;54;20394;-72
2023/02/10 15:56:10;;;;;;;35.00;30.70;;;8.10;26.30;;;;;;2614935;54;20118;-72
2023/02/10 16:02:02;;;;;;;33.37;26.63;;;7.90;30.00;;;;;;2614211;54;20122;-73
2023/02/10 16:11:12;;;;;;;34.50;29.60;;;7.50;42.40;;;;;;2615017;54;20425;-72
2023/02/10 16:16:59;;;;;;;30.17;26.90;;;7.20;49.90;;;;;;2615120;54;20535;-72
2023/02/10 16:22:48;;;;;;;38.60;28.20;;;7.00;56.30;;;;;;2616534;54;20170;-73
2023/02/10 16:28:35;;;;;;;39.30;28.00;;;6.80;67.80;;;;;;2616647;54;20407;-73
2023/02/10 16:34:23;;;;;;;36.57;26.83;;;6.60;83.60;;;;;;2616503;54;20126;-73
2023/02/10 16:46:44;;;;;;;38.83;27.53;;;6.30;94.60;;;;;;2616479;54;20391;-74
2023/02/10 16:52:31;;;;;;;36.90;27.87;;;6.20;96.20;;;;;;2616522;54;20899;-73
2023/02/10 16:58:19;;;;;;;38.40;27.60;;;6.10;99.90;;;;;;2616583;54;20654;-72
2023/02/10 17:04:07;;;;;;;41.47;28.87;;;6.00;99.90;;;;;;2616577;54;20122;-74
2023/02/10 17:09:55;;;;;;;29.00;24.10;;;5.90;99.90;;;;;;2616463;54;20230;-73
2023/02/10 17:15:43;;;;;;;59.47;40.07;;;6.00;99.90;;;;;;2616669;54;20621;-73
2023/02/10 17:21:32;;;;;;;37.27;33.20;;;6.10;99.90;;;;;;2616313;54;20675;-72
2023/02/10 17:27:19;;;;;;;33.83;22.70;;;6.20;99.90;;;;;;2616574;54;20423;-73
2023/02/10 17:33:25;;;;;;;29.23;24.90;;;6.60;99.90;;;;;;2616747;54;20122;-74
2023/02/10 17:45:25;;;;;;;25.83;21.10;;;6.70;99.90;;;;;;2616430;54;20431;-72
2023/02/10 17:57:44;;;;;;;26.47;22.60;;;6.70;99.90;;;;;;2615794;54;20370;-72
2023/02/10 18:03:32;;;;;;;24.70;19.17;;;6.70;99.90;;;;;;2616989;39;20754;-72
2023/02/10 18:09:20;;;;;;;29.90;24.83;;;6.60;99.90;;;;;;2616567;54;20150;-74
2023/02/10 18:15:08;;;;;;;30.90;24.53;;;6.60;99.90;;;;;;2617174;54;20415;-72
2023/02/10 18:20:56;;;;;;;28.93;21.73;;;6.70;99.90;;;;;;2616507;54;20384;-72
2023/02/10 18:26:44;;;;;;;30.10;24.90;;;6.60;99.90;;;;;;2616052;54;20147;-73
2023/02/10 18:32:32;;;;;;;28.33;19.20;;;6.40;99.90;;;;;;2617070;39;20205;-72
2023/02/10 18:41:41;;;;;;;37.50;24.40;;;6.30;99.90;;;;;;2615832;54;20426;-71
2023/02/10 18:47:29;;;;;;;34.90;23.83;;;6.40;99.90;;;;;;2616381;54;20122;-75
2023/02/10 18:53:18;;;;;;;26.40;22.87;;;6.40;99.90;;;;;;2616365;54;20134;-74
2023/02/10 18:59:06;;;;;;;30.27;20.57;;;6.40;99.90;;;;;;2616163;54;20430;-73
2023/02/10 19:04:54;;;;;;;39.43;24.43;;;6.70;99.90;;;;;;2616365;54;20130;-73
2023/02/10 19:10:41;;;;;;;29.87;23.60;;;6.90;99.90;;;;;;2616223;54;20660;-73
2023/02/10 19:16:30;;;;;;;37.00;22.43;;;6.90;99.90;;;;;;2616521;54;20118;-72
2023/02/10 19:22:18;;;;;;;36.37;24.30;;;7.00;99.90;;;;;;2617123;54;20362;-73
2023/02/10 19:28:06;;;;;;;37.03;23.07;;;6.90;99.90;;;;;;2617673;54;20178;-73
2023/02/10 19:33:53;;;;;;;33.10;22.80;;;6.80;99.90;;;;;;2617570;39;20653;-73
2023/02/10 19:39:54;;;;;;;36.40;23.57;;;6.70;99.90;;;;;;2616141;39;20535;-74
2023/02/10 19:45:41;;;;;;;36.53;24.97;;;6.70;99.90;;;;;;2615886;46;20242;-73
2023/02/10 19:51:28;;;;;;;54.73;29.83;;;6.60;99.90;;;;;;2615677;54;20144;-74
2023/02/10 19:57:15;;;;;;;46.73;27.47;;;6.50;99.90;;;;;;2615613;54;20123;-73
2023/02/10 20:03:03;;;;;;;40.47;27.50;;;6.60;99.90;;;;;;2615700;54;20625;-74
2023/02/10 20:08:51;;;;;;;44.50;25.57;;;6.70;99.90;;;;;;2615594;54;21100;-73
2023/02/10 20:14:39;;;;;;;46.90;28.70;;;6.70;99.90;;;;;;2615883;54;21105;-74
2023/02/10 20:20:26;;;;;;;46.67;30.27;;;6.70;99.90;;;;;;2617036;54;20362;-74
2023/02/10 20:26:15;;;;;;;47.93;26.37;;;6.80;99.90;;;;;;2617069;54;20119;-74
2023/02/10 20:32:03;;;;;;;46.20;26.73;;;6.80;99.90;;;;;;2617106;54;20418;-74
2023/02/10 20:41:44;;;;;;;43.67;22.80;;;6.80;99.90;;;;;;2616724;54;20374;-74
2023/02/10 20:47:32;;;;;;;44.67;27.13;;;6.80;99.90;;;;;;2616892;54;20384;-74
2023/02/10 20:53:20;;;;;;;42.97;25.20;;;6.80;99.90;;;;;;2617076;54;20640;-74
2023/02/10 20:59:08;;;;;;;47.07;28.83;;;6.80;99.90;;;;;;2616703;54;20131;-74
2023/02/10 21:04:55;;;;;;;45.97;27.77;;;6.70;99.90;;;;;;2616977;54;20154;-74
2023/02/10 21:10:43;;;;;;;36.20;21.57;;;6.80;99.90;;;;;;2616658;54;20127;-74
2023/02/10 21:16:31;;;;;;;42.60;23.50;;;6.80;99.90;;;;;;2616830;54;20419;-74
2023/02/10 21:22:19;;;;;;;44.97;26.77;;;6.80;99.90;;;;;;2616600;54;21164;-74
2023/02/10 21:28:07;;;;;;;48.83;29.73;;;6.70;99.90;;;;;;2616846;54;20142;-74
2023/02/10 21:33:54;;;;;;;40.60;26.50;;;6.60;99.90;;;;;;2617130;39;20557;-72
2023/02/10 21:37:13;;;;;;;39.67;26.53;;;6.60;99.90;;;;;;2615825;47;20394;-73
2023/02/10 21:39:39;;;;;;;43.70;27.70;;;6.60;99.90;;;;;;2616642;54;20147;-73
2023/02/10 21:45:27;;;;;;;40.20;25.53;;;6.60;99.90;;;;;;2617144;39;20767;-73
2023/02/10 21:51:15;;;;;;;48.73;31.43;;;6.50;99.90;;;;;;2616539;54;20154;-74
2023/02/10 21:57:03;;;;;;;41.40;25.50;;;6.50;99.90;;;;;;2616451;54;20129;-74
2023/02/10 22:02:51;;;;;;;48.17;30.77;;;6.50;99.90;;;;;;2616965;39;21052;-73
2023/02/10 22:08:39;;;;;;;50.53;27.90;;;6.50;99.90;;;;;;2616393;54;20178;-74
2023/02/10 22:14:27;;;;;;;53.83;30.37;;;6.50;99.90;;;;;;2616301;39;20222;-72
2023/02/10 22:20:14;;;;;;;48.20;29.97;;;6.50;99.90;;;;;;2616555;54;20126;-74
2023/02/10 22:26:02;;;;;;;46.60;29.40;;;6.50;99.90;;;;;;2616441;54;20127;-73
2023/02/10 22:31:52;;;;;;;48.13;31.97;;;6.40;99.90;;;;;;2616216;54;20961;-72
2023/02/10 22:41:45;;;;;;;43.67;27.40;;;6.40;99.90;;;;;;2616252;54;20398;-72
2023/02/10 22:47:33;;;;;;;63.03;31.40;;;6.30;99.90;;;;;;2616430;54;20414;-73
2023/02/10 22:53:21;;;;;;;55.70;29.33;;;6.20;99.90;;;;;;2616562;39;20523;-75
2023/02/10 22:59:10;;;;;;;58.23;27.57;;;6.20;99.90;;;;;;2616128;54;20118;-72
2023/02/10 23:04:59;;;;;;;52.33;28.53;;;6.40;99.90;;;;;;2616317;54;20370;-73
2023/02/10 23:10:47;;;;;;;51.80;32.00;;;6.50;99.90;;;;;;2616540;39;20770;-73
2023/02/10 23:16:35;;;;;;;44.37;27.40;;;6.60;99.90;;;;;;2616786;39;20798;-74
2023/02/10 23:22:23;;;;;;;47.50;28.30;;;6.60;99.90;;;;;;2616647;39;20866;-73
2023/02/10 23:28:11;;;;;;;46.43;29.37;;;6.70;99.90;;;;;;2615992;54;20495;-73
2023/02/10 23:33:58;;;;;;;51.63;28.80;;;6.70;99.90;;;;;;2616245;54;20652;-74
2023/02/10 23:37:13;;;;;;;46.67;29.70;;;6.70;99.90;;;;;;2615521;54;20543;-74
2023/02/10 23:39:39;;;;;;;45.40;27.27;;;6.70;99.90;;;;;;2616394;39;20893;-73
2023/02/10 23:45:29;;;;;;;50.93;31.50;;;6.70;99.90;;;;;;2616217;54;20142;-74
2023/02/10 23:51:22;;;;;;;47.90;28.73;;;6.70;99.90;;;;;;2616245;54;20412;-73
2023/02/10 23:57:09;;;;;;;32.77;23.07;;;6.70;99.90;;;;;;2616480;39;20778;-74
